Time;durP1;ratioP1;P1;durP2;ratioP2;P2;SDS_P1;SDS_P2;PMS_P1;PMS_P2;Temp;Humidity;BMP_temperature;BMP_pressure;BME280_temperature;BME280_humidity;BME280_pressure;Samples;Min_cycle;Max_cycle;Signal;HPM_P1;HPM_P2
2023/10/08 00:00:39;;;;;;;1.77;0.93;;;3.60;99.90;;;;;;1925839;73;25278;-88
2023/10/08 00:02:53;;;;;;;8.47;0.80;;;3.60;99.90;;;;;;1927878;73;25287;-88
2023/10/08 00:08:27;;;;;;;1.37;0.70;;;3.60;99.90;;;;;;1939166;72;27127;-86
2023/10/08 00:11:16;;;;;;;0.80;0.50;;;3.60;99.90;;;;;;1904118;74;25222;-87
2023/10/08 00:14:09;;;;;;;0.50;0.50;;;3.60;99.90;;;;;;1904126;75;25285;-88
2023/10/08 00:16:55;;;;;;;0.73;0.70;;;3.60;99.90;;;;;;1902036;73;25747;-87
2023/10/08 00:19:45;;;;;;;0.50;0.50;;;3.50;99.90;;;;;;1855241;76;25708;-89
2023/10/08 00:22:35;;;;;;;0.67;0.67;;;3.50;99.90;;;;;;1830946;77;25328;-89
2023/10/08 00:25:24;;;;;;;0.50;0.50;;;3.40;99.90;;;;;;1862781;76;25294;-89
2023/10/08 00:28:13;;;;;;;0.90;0.70;;;3.50;99.90;;;;;;1864015;75;25300;-88
2023/10/08 00:31:11;;;;;;;0.60;0.60;;;3.50;99.90;;;;;;1853758;75;25273;-88
2023/10/08 00:33:54;;;;;;;1.40;0.90;;;3.40;99.90;;;;;;1815123;78;25266;-89
2023/10/08 00:36:45;;;;;;;4.10;0.67;;;3.40;99.90;;;;;;1836731;77;25798;-88
2023/10/08 00:42:14;;;;;;;1.70;0.60;;;3.60;99.90;;;;;;1942136;72;27459;-86
2023/10/08 00:45:05;;;;;;;0.60;0.50;;;3.60;99.90;;;;;;1905009;74;25842;-89
2023/10/08 00:51:25;;;;;;;1.10;0.70;;;3.70;99.90;;;;;;1972442;71;27351;-88
2023/10/08 00:56:57;;;;;;;0.57;0.57;;;3.70;99.90;;;;;;1947750;72;27561;-87
2023/10/08 00:59:49;;;;;;;3.63;0.67;;;3.70;99.90;;;;;;1921388;73;25217;-88
2023/10/08 01:02:45;;;;;;;2.53;0.80;;;3.80;99.90;;;;;;1916727;73;25703;-88
2023/10/08 01:05:43;;;;;;;3.77;1.00;;;3.80;99.90;;;;;;1916491;73;25216;-88
2023/10/08 01:08:36;;;;;;;4.50;1.00;;;3.80;99.90;;;;;;1916697;73;25520;-88
2023/10/08 01:11:33;;;;;;;2.63;0.70;;;3.80;99.90;;;;;;1916330;73;25746;-89
2023/10/08 01:14:21;;;;;;;0.30;0.30;;;3.80;99.90;;;;;;1917268;73;25218;-87
2023/10/08 01:17:12;;;;;;;2.27;0.67;;;3.80;99.90;;;;;;1917239;73;25227;-88
2023/10/08 01:20:10;;;;;;;2.67;0.83;;;3.80;99.90;;;;;;1920728;73;25787;-88
2023/10/08 01:22:51;;;;;;;0.83;0.50;;;3.90;99.90;;;;;;1916732;73;25925;-88
2023/10/08 01:25:41;;;;;;;5.17;0.80;;;3.90;99.90;;;;;;1916434;73;25742;-87
2023/10/08 01:28:32;;;;;;;2.63;0.80;;;3.80;99.90;;;;;;1930950;73;25161;-87
2023/10/08 01:31:22;;;;;;;1.10;0.70;;;3.80;99.90;;;;;;1923311;73;25983;-87
2023/10/08 01:34:15;;;;;;;1.63;0.70;;;3.70;99.90;;;;;;1916018;73;25164;-87
2023/10/08 01:39:49;;;;;;;2.87;0.70;;;3.60;99.90;;;;;;1928789;72;27125;-87
2023/10/08 01:42:39;;;;;;;0.93;0.70;;;3.70;99.90;;;;;;1866635;75;25339;-87
2023/10/08 01:45:30;;;;;;;0.90;0.47;;;3.60;99.90;;;;;;1809816;78;25211;-88
2023/10/08 01:51:09;;;;;;;1.30;0.80;;;3.60;99.90;;;;;;2036123;69;27064;-89
2023/10/08 01:53:57;;;;;;;0.50;0.50;;;3.50;99.90;;;;;;1995010;71;25274;-89
2023/10/08 01:56:47;;;;;;;0.60;0.60;;;3.60;99.90;;;;;;1998618;71;25237;-89
2023/10/08 01:59:38;;;;;;;0.93;0.50;;;3.70;99.90;;;;;;1987398;71;25233;-89
2023/10/08 02:02:27;;;;;;;0.50;0.50;;;3.70;99.90;;;;;;1986944;71;25260;-89
2023/10/08 02:08:03;;;;;;;0.60;0.60;;;3.60;99.90;;;;;;1950691;72;27595;-89
2023/10/08 02:10:52;;;;;;;2.13;0.60;;;3.70;99.90;;;;;;1930710;72;25177;-87
2023/10/08 02:13:42;;;;;;;1.60;0.60;;;3.60;99.90;;;;;;1926920;72;25351;-89
2023/10/08 02:19:18;;;;;;;0.67;0.60;;;3.60;99.90;;;;;;1978922;71;27554;-87
2023/10/08 02:22:09;;;;;;;0.77;0.63;;;3.60;99.90;;;;;;1929324;73;25225;-88
2023/10/08 02:25:01;;;;;;;0.67;0.60;;;3.40;99.90;;;;;;1937426;73;25281;-88
2023/10/08 02:27:47;;;;;;;0.60;0.60;;;3.40;99.90;;;;;;1947269;72;25323;-88
2023/10/08 02:30:36;;;;;;;1.33;0.70;;;3.40;99.90;;;;;;1933824;73;25301;-88
2023/10/08 02:33:26;;;;;;;1.80;0.67;;;3.30;99.90;;;;;;1933827;73;25277;-88
2023/10/08 02:38:55;;;;;;;1.17;0.67;;;3.20;99.90;;;;;;1949758;72;27087;-87
2023/10/08 02:41:45;;;;;;;1.77;0.70;;;3.10;99.90;;;;;;1930510;73;25627;-89
2023/10/08 02:47:16;;;;;;;1.10;0.60;;;2.90;99.90;;;;;;1942744;72;27085;-87
2023/10/08 02:50:09;;;;;;;0.60;0.60;;;2.80;99.90;;;;;;1903904;75;25245;-89
2023/10/08 02:55:44;;;;;;;0.83;0.60;;;3.00;99.90;;;;;;1950132;72;26994;-89
2023/10/08 02:58:36;;;;;;;5.80;0.80;;;3.00;99.90;;;;;;1938629;73;25225;-87
2023/10/08 03:01:23;;;;;;;0.50;0.50;;;3.00;99.90;;;;;;1935509;73;25275;-88
2023/10/08 03:04:18;;;;;;;1.93;0.67;;;3.00;99.90;;;;;;1937908;73;25259;-89
2023/10/08 03:07:11;;;;;;;0.70;0.70;;;3.00;99.90;;;;;;1917652;73;25307;-89
2023/10/08 03:10:03;;;;;;;0.70;0.70;;;3.00;99.90;;;;;;1916423;73;25239;-89
2023/10/08 03:12:47;;;;;;;3.60;0.80;;;3.00;99.90;;;;;;1929884;73;25243;-89
2023/10/08 03:15:40;;;;;;;1.03;0.53;;;3.00;99.90;;;;;;1919991;73;25183;-89
2023/10/08 03:18:35;;;;;;;1.83;0.77;;;3.00;99.90;;;;;;1936901;73;25483;-88
2023/10/08 03:21:43;;;;;;;1.10;0.60;;;3.10;99.90;;;;;;1918131;73;25217;-87
2023/10/08 03:24:29;;;;;;;0.70;0.70;;;3.00;99.90;;;;;;1921027;73;25231;-88
2023/10/08 03:27:06;;;;;;;2.23;0.80;;;3.10;99.90;;;;;;1924920;73;25207;-88
2023/10/08 03:29:58;;;;;;;0.73;0.70;;;3.00;99.90;;;;;;1891792;75;25196;-88
2023/10/08 03:36:34;;;;;;;0.60;0.60;;;3.00;99.90;;;;;;1979860;71;26370;-89
2023/10/08 03:39:22;;;;;;;0.77;0.73;;;3.00;99.90;;;;;;2000917;70;25229;-89
2023/10/08 03:42:13;;;;;;;1.93;0.70;;;2.90;99.90;;;;;;2004369;70;25689;-89
2023/10/08 03:45:11;;;;;;;0.97;0.57;;;3.00;99.90;;;;;;2037199;70;25265;-89
2023/10/08 03:48:03;;;;;;;1.83;0.53;;;3.00;99.90;;;;;;2017718;70;25218;-89
2023/10/08 03:53:23;;;;;;;0.90;0.70;;;3.00;99.90;;;;;;1933592;72;27104;-89
2023/10/08 03:58:54;;;;;;;0.60;0.60;;;3.10;99.90;;;;;;1924397;72;27082;-89
2023/10/08 04:01:44;;;;;;;0.80;0.50;;;3.10;99.90;;;;;;1903124;74;25221;-89
2023/10/08 04:04:48;;;;;;;0.60;0.60;;;3.20;99.90;;;;;;1904030;75;25215;-89
2023/10/08 04:07:28;;;;;;;0.70;0.60;;;3.20;99.90;;;;;;1908952;75;25247;-88
2023/10/08 04:10:39;;;;;;;1.47;0.67;;;3.30;99.90;;;;;;1897031;74;25255;-87
2023/10/08 04:13:16;;;;;;;8.83;0.90;;;3.30;99.90;;;;;;1850415;76;25352;-88
2023/10/08 04:16:04;;;;;;;0.83;0.47;;;3.30;99.90;;;;;;1828304;76;25278;-88
2023/10/08 04:18:55;;;;;;;1.63;0.80;;;3.30;99.90;;;;;;1903281;75;25688;-88
2023/10/08 04:21:42;;;;;;;0.63;0.50;;;3.30;99.90;;;;;;1910262;74;25716;-88
2023/10/08 04:24:34;;;;;;;1.47;0.80;;;3.40;99.90;;;;;;1906010;74;25301;-87
2023/10/08 04:27:22;;;;;;;0.70;0.70;;;3.30;99.90;;;;;;1870714;76;25252;-87
2023/10/08 04:30:14;;;;;;;1.77;0.67;;;3.30;99.90;;;;;;1894596;74;25293;-87
2023/10/08 04:33:06;;;;;;;1.07;0.87;;;3.30;99.90;;;;;;1912200;74;25289;-87
2023/10/08 04:35:55;;;;;;;2.33;0.70;;;3.30;99.90;;;;;;1908064;74;25766;-87
2023/10/08 04:38:47;;;;;;;2.10;0.60;;;3.40;99.90;;;;;;1903182;75;25808;-91
2023/10/08 04:44:16;;;;;;;0.83;0.50;;;3.30;99.90;;;;;;1934693;72;27105;-89
2023/10/08 04:47:31;;;;;;;0.73;0.70;;;3.40;99.90;;;;;;1897585;75;25295;-89
2023/10/08 04:49:58;;;;;;;0.87;0.67;;;3.30;99.90;;;;;;1909357;75;25239;-89
2023/10/08 04:52:58;;;;;;;1.13;0.50;;;3.20;99.90;;;;;;1905256;75;25297;-89
2023/10/08 04:55:48;;;;;;;1.23;0.60;;;3.20;99.90;;;;;;1897438;75;25839;-89
2023/10/08 04:58:33;;;;;;;1.27;0.73;;;3.20;99.90;;;;;;1883435;76;25377;-89
2023/10/08 05:01:20;;;;;;;0.83;0.60;;;3.20;99.90;;;;;;1897957;75;25228;-89
2023/10/08 05:04:23;;;;;;;0.73;0.50;;;3.10;99.90;;;;;;1890178;75;25250;-89
2023/10/08 05:07:17;;;;;;;2.27;0.60;;;3.20;99.90;;;;;;1905527;75;25163;-89
2023/10/08 05:10:12;;;;;;;2.17;0.67;;;3.20;99.90;;;;;;1899681;75;25254;-87
2023/10/08 05:13:15;;;;;;;1.17;0.60;;;3.10;99.90;;;;;;1884816;75;25301;-88
2023/10/08 05:16:29;;;;;;;0.90;0.50;;;3.10;99.90;;;;;;1891811;75;25224;-89
2023/10/08 05:19:24;;;;;;;0.50;0.50;;;3.10;99.90;;;;;;1898867;75;25174;-88
2023/10/08 05:22:17;;;;;;;0.50;0.50;;;3.10;99.90;;;;;;1893434;75;25278;-89
2023/10/08 05:25:07;;;;;;;0.30;0.30;;;3.10;99.90;;;;;;1891722;75;25246;-88
2023/10/08 05:28:09;;;;;;;1.07;0.53;;;3.10;99.90;;;;;;1889372;75;25788;-88
2023/10/08 05:30:55;;;;;;;1.13;0.70;;;3.10;99.90;;;;;;1897982;75;25441;-88
2023/10/08 05:36:28;;;;;;;0.43;0.30;;;3.10;99.90;;;;;;1935229;72;27077;-89
2023/10/08 05:39:29;;;;;;;0.57;0.50;;;3.20;99.90;;;;;;1892612;75;25219;-89
2023/10/08 05:45:29;;;;;;;0.60;0.60;;;3.20;99.90;;;;;;1998209;71;27486;-89
2023/10/08 05:51:33;;;;;;;0.50;0.50;;;3.30;99.90;;;;;;1943057;72;27167;-89
2023/10/08 05:54:35;;;;;;;0.90;0.70;;;3.30;99.90;;;;;;1916790;73;25288;-89
2023/10/08 05:57:35;;;;;;;0.67;0.50;;;3.20;99.90;;;;;;1923108;73;25274;-89
2023/10/08 06:00:46;;;;;;;0.60;0.60;;;3.20;99.90;;;;;;1930724;73;25397;-89
2023/10/08 06:03:32;;;;;;;1.13;0.70;;;3.20;99.90;;;;;;1921543;73;25174;-89
2023/10/08 06:06:35;;;;;;;5.30;0.90;;;3.20;99.90;;;;;;1925524;73;25859;-89
2023/10/08 06:12:07;;;;;;;1.07;0.60;;;3.30;99.90;;;;;;1951380;72;27468;-89
2023/10/08 06:17:55;;;;;;;0.90;0.50;;;3.40;99.90;;;;;;1946220;72;27086;-89
2023/10/08 06:20:40;;;;;;;1.17;1.00;;;3.40;99.90;;;;;;1918525;73;25163;-89
2023/10/08 06:23:29;;;;;;;0.70;0.70;;;3.50;99.90;;;;;;1922070;73;25250;-89
2023/10/08 06:26:21;;;;;;;0.87;0.80;;;3.50;99.90;;;;;;1937100;73;25302;-89
2023/10/08 06:29:18;;;;;;;0.87;0.40;;;3.60;99.90;;;;;;1920373;73;25361;-89
2023/10/08 06:32:02;;;;;;;0.57;0.57;;;3.60;99.90;;;;;;1917677;73;25239;-89
2023/10/08 06:34:50;;;;;;;0.80;0.50;;;3.70;99.90;;;;;;1917349;73;25247;-88
2023/10/08 06:37:39;;;;;;;0.40;0.40;;;3.70;99.90;;;;;;1918491;73;25905;-89
2023/10/08 06:40:40;;;;;;;0.70;0.70;;;3.80;99.90;;;;;;1916701;73;25239;-89
2023/10/08 06:43:27;;;;;;;0.50;0.50;;;3.80;99.90;;;;;;1888432;73;25850;-89
2023/10/08 06:46:19;;;;;;;0.47;0.43;;;3.90;99.90;;;;;;1890818;75;25239;-89
2023/10/08 06:49:12;;;;;;;0.67;0.67;;;4.00;99.90;;;;;;1896345;74;25640;-89
2023/10/08 06:52:00;;;;;;;0.60;0.60;;;4.10;99.90;;;;;;1895770;74;25262;-87
2023/10/08 06:54:50;;;;;;;1.40;0.63;;;4.20;99.90;;;;;;1858709;76;25265;-89
2023/10/08 06:57:42;;;;;;;0.30;0.30;;;4.30;99.90;;;;;;1891339;74;25316;-89
2023/10/08 07:03:10;;;;;;;0.70;0.70;;;4.40;99.90;;;;;;1930663;72;27054;-87
2023/10/08 07:06:02;;;;;;;1.07;0.43;;;4.50;99.90;;;;;;1919939;73;25237;-89
2023/10/08 07:08:54;;;;;;;1.60;0.50;;;4.50;99.90;;;;;;1868605;76;25875;-89
2023/10/08 07:11:44;;;;;;;0.47;0.43;;;4.60;99.90;;;;;;1818997;78;25357;-89
2023/10/08 07:14:31;;;;;;;0.50;0.50;;;4.70;99.90;;;;;;1930581;73;25619;-89
2023/10/08 07:17:20;;;;;;;1.33;0.77;;;4.80;99.90;;;;;;1862729;76;25265;-89
2023/10/08 07:20:22;;;;;;;0.70;0.60;;;4.80;99.90;;;;;;1858314;76;25725;-89
2023/10/08 07:23:02;;;;;;;0.77;0.50;;;5.00;99.90;;;;;;1869598;76;25265;-89
2023/10/08 07:26:00;;;;;;;0.87;0.60;;;5.00;99.90;;;;;;1822179;78;25298;-89
2023/10/08 07:28:47;;;;;;;0.53;0.50;;;5.20;99.90;;;;;;1903814;73;25674;-90
2023/10/08 07:31:41;;;;;;;0.50;0.50;;;5.30;99.90;;;;;;1872566;75;25294;-87
2023/10/08 07:34:31;;;;;;;1.60;0.50;;;5.40;99.90;;;;;;1815926;78;25269;-89
2023/10/08 07:37:17;;;;;;;1.07;0.50;;;5.40;99.90;;;;;;1916520;73;25167;-89
2023/10/08 07:40:10;;;;;;;1.33;0.50;;;5.40;99.90;;;;;;1924152;73;25170;-89
2023/10/08 07:43:05;;;;;;;1.07;0.60;;;5.50;99.90;;;;;;1901395;75;25207;-89
2023/10/08 07:48:30;;;;;;;3.23;1.73;;;5.60;99.90;;;;;;1896213;74;26879;-87
2023/10/08 07:53:57;;;;;;;2.17;0.77;;;5.80;99.90;;;;;;1927396;72;27100;-87
2023/10/08 07:56:46;;;;;;;1.20;0.40;;;6.00;99.90;;;;;;1897998;73;25230;-89
2023/10/08 07:59:38;;;;;;;0.97;0.60;;;6.00;99.90;;;;;;1909001;73;25233;-89
2023/10/08 08:02:26;;;;;;;0.50;0.50;;;6.00;99.90;;;;;;1895978;73;25267;-88
2023/10/08 08:05:16;;;;;;;0.40;0.40;;;6.00;99.90;;;;;;1901910;73;25250;-88
2023/10/08 08:08:06;;;;;;;0.77;0.70;;;6.00;99.90;;;;;;1907004;73;25285;-89
2023/10/08 08:10:57;;;;;;;4.23;0.73;;;6.10;99.90;;;;;;1912087;73;25147;-89
2023/10/08 08:13:45;;;;;;;0.50;0.50;;;6.20;99.90;;;;;;1914000;73;25773;-89
2023/10/08 08:16:36;;;;;;;0.63;0.60;;;6.40;99.90;;;;;;1898798;73;25215;-88
2023/10/08 08:19:24;;;;;;;0.53;0.50;;;6.60;99.90;;;;;;1908134;73;25283;-88
2023/10/08 08:22:15;;;;;;;2.23;0.60;;;6.60;99.90;;;;;;1907296;73;25841;-88
2023/10/08 08:25:15;;;;;;;3.07;0.70;;;6.70;99.90;;;;;;1911177;73;25356;-88
2023/10/08 08:27:55;;;;;;;0.77;0.70;;;6.80;99.90;;;;;;1905409;73;25239;-89
2023/10/08 08:30:46;;;;;;;0.60;0.60;;;6.80;99.90;;;;;;1905766;73;25819;-89
2023/10/08 08:33:52;;;;;;;1.70;0.60;;;7.00;99.90;;;;;;1910647;73;25270;-89
2023/10/08 08:36:27;;;;;;;1.30;0.47;;;6.80;99.90;;;;;;1905388;73;25379;-89
2023/10/08 08:42:01;;;;;;;4.80;0.60;;;7.10;99.90;;;;;;2012990;69;27541;-88
2023/10/08 08:48:35;;;;;;;0.40;0.40;;;7.10;99.90;;;;;;1922383;72;26884;-88
2023/10/08 08:54:06;;;;;;;0.67;0.60;;;7.20;99.90;;;;;;1951001;72;27417;-88
2023/10/08 08:56:56;;;;;;;0.73;0.40;;;7.40;99.90;;;;;;1900634;73;25727;-90
2023/10/08 08:59:48;;;;;;;1.90;0.60;;;7.50;99.90;;;;;;1929604;72;25220;-90
2023/10/08 09:02:37;;;;;;;1.40;0.60;;;7.60;99.90;;;;;;1933999;73;25251;-90
2023/10/08 09:05:25;;;;;;;0.50;0.50;;;7.80;99.90;;;;;;1936373;72;25252;-90
2023/10/08 09:08:16;;;;;;;6.00;0.50;;;7.70;99.90;;;;;;1938117;72;25717;-90
2023/10/08 09:11:04;;;;;;;2.10;0.60;;;7.80;99.90;;;;;;1943339;72;25236;-89
2023/10/08 09:13:54;;;;;;;1.30;0.60;;;8.00;99.90;;;;;;1926520;72;25234;-88
2023/10/08 09:19:28;;;;;;;3.23;0.70;;;8.20;99.90;;;;;;1955599;72;26995;-88
2023/10/08 09:27:30;;;;;;;1.10;0.53;;;8.10;99.90;;;;;;2001946;71;26846;-88
2023/10/08 09:30:20;;;;;;;1.00;0.60;;;8.60;99.90;;;;;;1957247;72;25701;-88
2023/10/08 09:33:12;;;;;;;3.23;0.70;;;8.50;99.90;;;;;;2039538;69;25805;-88
2023/10/08 09:36:05;;;;;;;0.50;0.50;;;8.60;99.90;;;;;;2036205;69;25259;-88
2023/10/08 09:38:53;;;;;;;0.70;0.60;;;8.50;99.90;;;;;;2046828;69;25618;-88
2023/10/08 09:41:43;;;;;;;1.73;0.70;;;8.50;99.90;;;;;;2029615;69;25164;-88
2023/10/08 09:44:32;;;;;;;1.53;0.60;;;8.70;99.90;;;;;;2013885;69;25237;-90
2023/10/08 09:50:12;;;;;;;1.07;0.70;;;8.50;99.90;;;;;;1944681;72;27475;-88
2023/10/08 09:53:06;;;;;;;1.90;0.63;;;8.50;99.90;;;;;;1930999;73;25807;-89
2023/10/08 09:58:39;;;;;;;1.50;0.73;;;8.50;99.90;;;;;;1904579;73;28542;-88
2023/10/08 10:01:30;;;;;;;0.50;0.50;;;8.50;99.90;;;;;;1871555;76;25226;-90
2023/10/08 10:07:14;;;;;;;2.93;0.70;;;8.60;99.90;;;;;;2014856;69;27067;-88
2023/10/08 10:10:09;;;;;;;1.00;0.50;;;8.70;99.90;;;;;;1965812;72;25150;-90
2023/10/08 10:15:39;;;;;;;0.50;0.50;;;8.80;99.90;;;;;;1953923;72;27107;-87
2023/10/08 10:18:31;;;;;;;2.20;0.50;;;8.90;99.90;;;;;;1922375;73;25246;-88
2023/10/08 10:21:33;;;;;;;0.97;0.40;;;9.00;99.90;;;;;;1928215;73;25286;-89
2023/10/08 10:27:18;;;;;;;0.53;0.53;;;8.90;99.90;;;;;;1946097;72;27502;-88
2023/10/08 10:30:09;;;;;;;1.57;0.50;;;8.90;99.90;;;;;;1950980;72;25215;-88
2023/10/08 10:32:59;;;;;;;3.43;0.60;;;8.90;99.90;;;;;;1940428;72;25261;-89
2023/10/08 10:35:54;;;;;;;2.00;0.67;;;9.10;99.90;;;;;;1948394;72;25207;-90
2023/10/08 10:38:43;;;;;;;1.93;0.53;;;9.30;99.90;;;;;;1920542;73;25294;-90
2023/10/08 10:41:34;;;;;;;0.50;0.50;;;9.30;99.90;;;;;;1923930;73;25176;-91
2023/10/08 10:44:23;;;;;;;0.53;0.53;;;9.20;99.90;;;;;;1939513;73;25335;-91
2023/10/08 10:47:27;;;;;;;0.87;0.43;;;9.30;99.90;;;;;;1923176;73;25225;-90
2023/10/08 10:53:29;;;;;;;1.20;0.60;;;9.40;99.90;;;;;;1913780;73;25720;-90
2023/10/08 10:56:19;;;;;;;0.80;0.63;;;9.60;99.90;;;;;;1916606;73;25259;-90
2023/10/08 10:59:18;;;;;;;1.60;0.77;;;9.60;99.90;;;;;;1913484;73;25182;-90
2023/10/08 11:02:08;;;;;;;2.03;0.60;;;9.40;99.90;;;;;;1934716;73;25310;-91
2023/10/08 11:05:07;;;;;;;4.00;0.60;;;9.60;99.90;;;;;;1929180;73;25303;-90
2023/10/08 11:07:49;;;;;;;1.60;0.50;;;9.60;99.90;;;;;;1913065;73;25188;-91
2023/10/08 11:10:40;;;;;;;1.20;0.60;;;9.60;99.90;;;;;;1934308;73;25290;-91
2023/10/08 11:13:37;;;;;;;0.60;0.60;;;9.50;99.90;;;;;;1925938;73;25244;-90
2023/10/08 11:16:21;;;;;;;0.60;0.60;;;9.60;99.90;;;;;;1919868;73;25252;-91
2023/10/08 11:19:10;;;;;;;0.97;0.70;;;9.70;99.90;;;;;;1927028;73;25162;-90
2023/10/08 11:21:59;;;;;;;0.77;0.63;;;9.70;99.90;;;;;;1915436;73;25245;-90
2023/10/08 11:38:22;;;;;;;0.70;0.60;;;9.60;99.90;;;;;;1935083;72;27651;-91
2023/10/08 11:44:04;;;;;;;0.40;0.40;;;9.70;99.90;;;;;;1944738;72;26935;-89
2023/10/08 12:03:25;;;;;;;0.87;0.40;;;9.70;99.90;;;;;;1898950;74;27607;-92
2023/10/08 12:06:15;;;;;;;0.77;0.50;;;9.90;99.90;;;;;;1877692;76;25280;-92
2023/10/08 12:09:11;;;;;;;0.60;0.60;;;9.90;99.90;;;;;;1878069;76;25247;-92
2023/10/08 12:11:51;;;;;;;0.40;0.40;;;10.10;99.90;;;;;;1866039;76;25279;-92
2023/10/08 12:14:43;;;;;;;0.57;0.43;;;10.30;99.90;;;;;;1878280;76;25294;-92
2023/10/08 12:17:39;;;;;;;0.63;0.50;;;10.10;99.90;;;;;;1861308;76;25268;-91
2023/10/08 12:20:23;;;;;;;0.67;0.67;;;10.10;99.90;;;;;;1861796;75;25281;-92
2023/10/08 12:23:19;;;;;;;1.13;0.63;;;10.10;99.90;;;;;;1858208;76;25281;-90
2023/10/08 12:26:03;;;;;;;0.83;0.50;;;10.00;99.90;;;;;;1860282;75;25269;-90
2023/10/08 12:28:53;;;;;;;0.87;0.70;;;10.00;99.90;;;;;;1857108;76;25711;-89
2023/10/08 12:31:42;;;;;;;0.40;0.40;;;10.10;99.90;;;;;;1868062;76;25677;-89
2023/10/08 12:34:35;;;;;;;0.47;0.47;;;10.10;99.90;;;;;;1878277;76;25281;-89
2023/10/08 12:37:22;;;;;;;2.23;0.60;;;10.10;99.90;;;;;;1873087;76;25325;-89
2023/10/08 12:42:57;;;;;;;0.43;0.43;;;10.20;99.90;;;;;;1919505;72;27188;-88
2023/10/08 12:45:51;;;;;;;0.40;0.40;;;10.10;99.90;;;;;;1844537;78;25268;-87
2023/10/08 12:48:36;;;;;;;0.60;0.60;;;10.10;99.90;;;;;;1814173;77;26655;-88
2023/10/08 12:51:26;;;;;;;1.13;0.40;;;10.10;99.90;;;;;;1823900;77;25235;-87
2023/10/08 12:54:21;;;;;;;2.33;0.50;;;10.10;99.90;;;;;;1828065;77;25193;-88
2023/10/08 12:57:08;;;;;;;0.40;0.40;;;10.10;99.90;;;;;;1809208;78;25207;-87
2023/10/08 12:59:57;;;;;;;0.40;0.40;;;10.00;99.90;;;;;;1808948;78;25355;-87
2023/10/08 13:02:49;;;;;;;0.40;0.40;;;10.00;99.90;;;;;;1818360;77;25814;-89
2023/10/08 13:05:34;;;;;;;0.50;0.50;;;10.00;99.90;;;;;;1873372;75;25235;-90
2023/10/08 13:11:15;;;;;;;0.40;0.40;;;10.00;99.90;;;;;;1953256;72;27536;-88
2023/10/08 13:14:04;;;;;;;0.83;0.40;;;9.90;99.90;;;;;;1931717;73;25285;-89
2023/10/08 13:16:53;;;;;;;0.43;0.43;;;10.00;99.90;;;;;;1921799;73;25282;-88
2023/10/08 13:19:45;;;;;;;0.97;0.60;;;9.90;99.90;;;;;;1932619;73;25224;-87
2023/10/08 13:22:33;;;;;;;0.40;0.40;;;10.00;99.90;;;;;;1925071;73;25244;-89
2023/10/08 13:29:13;;;;;;;0.50;0.40;;;9.90;99.90;;;;;;1977808;71;26254;-87
2023/10/08 13:32:03;;;;;;;0.60;0.57;;;9.90;99.90;;;;;;1964024;71;25672;-87
2023/10/08 13:34:51;;;;;;;0.40;0.40;;;10.00;99.90;;;;;;2062417;68;25252;-89
2023/10/08 13:40:32;;;;;;;0.40;0.40;;;9.90;99.90;;;;;;1945115;72;27589;-87
2023/10/08 13:45:53;;;;;;;1.57;0.53;;;9.90;99.90;;;;;;1935149;72;27556;-87
2023/10/08 13:48:46;;;;;;;0.93;0.50;;;10.00;99.90;;;;;;1894543;74;25803;-89
2023/10/08 13:51:34;;;;;;;0.50;0.50;;;9.90;99.90;;;;;;1876108;76;25273;-89
2023/10/08 13:54:25;;;;;;;1.27;0.50;;;9.90;99.90;;;;;;1826890;78;25258;-90
2023/10/08 13:59:53;;;;;;;1.87;0.47;;;9.90;99.90;;;;;;1926469;72;27116;-87
2023/10/08 14:02:42;;;;;;;2.03;0.60;;;9.90;99.90;;;;;;1915458;73;25309;-89
2023/10/08 14:05:31;;;;;;;0.70;0.70;;;9.80;99.90;;;;;;1861246;76;25249;-89
2023/10/08 14:08:22;;;;;;;0.60;0.60;;;9.90;99.90;;;;;;1827117;76;25317;-89
2023/10/08 14:13:52;;;;;;;0.50;0.50;;;9.80;99.90;;;;;;1889835;74;26769;-87
2023/10/08 14:19:28;;;;;;;0.50;0.50;;;9.70;99.90;;;;;;1934214;72;27054;-87
2023/10/08 14:22:13;;;;;;;0.93;0.60;;;9.80;99.90;;;;;;1915448;73;25917;-87
2023/10/08 14:25:02;;;;;;;2.20;0.50;;;9.80;99.90;;;;;;1909364;73;25209;-88
2023/10/08 14:27:52;;;;;;;1.03;0.40;;;9.70;99.90;;;;;;1906765;75;25486;-88
2023/10/08 14:30:41;;;;;;;0.63;0.63;;;9.70;99.90;;;;;;1907904;73;25300;-88
2023/10/08 14:33:41;;;;;;;1.23;0.60;;;9.70;99.90;;;;;;1910623;75;25159;-88
2023/10/08 14:42:55;;;;;;;2.03;0.57;;;9.60;99.90;;;;;;1889180;75;25261;-87
2023/10/08 14:45:46;;;;;;;1.07;0.50;;;9.60;99.90;;;;;;1894598;75;25845;-87
2023/10/08 14:48:35;;;;;;;0.50;0.50;;;9.50;99.90;;;;;;1884262;74;25694;-87
2023/10/08 14:51:24;;;;;;;0.93;0.57;;;9.40;99.90;;;;;;1877628;75;25220;-87
2023/10/08 14:54:14;;;;;;;0.63;0.40;;;9.40;99.90;;;;;;1898431;74;25180;-87
2023/10/08 14:57:03;;;;;;;0.43;0.43;;;9.30;99.90;;;;;;1886131;75;25212;-87
2023/10/08 14:59:52;;;;;;;1.97;0.50;;;9.30;99.90;;;;;;1845936;76;25326;-87
2023/10/08 15:02:42;;;;;;;0.80;0.60;;;9.30;99.90;;;;;;1862695;74;25831;-87
2023/10/08 15:05:31;;;;;;;3.23;0.50;;;9.30;99.90;;;;;;1830539;76;25318;-87
2023/10/08 15:08:20;;;;;;;0.60;0.60;;;9.20;99.90;;;;;;1793266;78;25283;-87
2023/10/08 15:11:10;;;;;;;0.57;0.40;;;9.20;99.90;;;;;;1812970;77;25286;-88
2023/10/08 15:16:39;;;;;;;0.40;0.40;;;9.10;99.90;;;;;;1928537;72;27637;-87
2023/10/08 15:19:29;;;;;;;0.73;0.40;;;9.00;99.90;;;;;;1908816;74;25336;-87
2023/10/08 15:22:17;;;;;;;0.47;0.47;;;8.90;99.90;;;;;;1901147;74;25719;-87
2023/10/08 15:27:48;;;;;;;3.27;0.90;;;8.70;99.90;;;;;;1931148;72;27019;-87
2023/10/08 15:33:26;;;;;;;1.20;0.30;;;8.60;99.90;;;;;;1944823;72;27026;-87
2023/10/08 15:36:13;;;;;;;0.40;0.40;;;8.50;99.90;;;;;;1923799;73;25299;-88
2023/10/08 15:41:49;;;;;;;1.33;1.10;;;8.40;99.90;;;;;;1943558;72;27107;-89
2023/10/08 15:44:38;;;;;;;1.97;1.10;;;8.30;99.90;;;;;;1910242;73;25178;-87
2023/10/08 15:47:27;;;;;;;1.60;0.90;;;8.10;99.90;;;;;;1912372;74;25327;-89
2023/10/08 15:50:18;;;;;;;0.60;0.60;;;8.10;99.90;;;;;;1906857;75;25287;-88
2023/10/08 15:55:56;;;;;;;0.83;0.80;;;7.90;99.90;;;;;;1982895;71;26969;-89
2023/10/08 15:58:44;;;;;;;0.70;0.70;;;7.80;99.90;;;;;;1929718;72;25195;-89
2023/10/08 16:01:33;;;;;;;1.60;0.90;;;7.70;99.90;;;;;;1919995;73;25164;-89
2023/10/08 16:04:26;;;;;;;1.43;1.00;;;7.50;99.90;;;;;;1919556;73;25759;-88
2023/10/08 16:07:11;;;;;;;1.30;1.20;;;7.40;99.90;;;;;;1928094;72;25261;-89
2023/10/08 16:10:00;;;;;;;2.30;1.50;;;7.20;99.90;;;;;;1921242;73;25193;-89
2023/10/08 16:12:49;;;;;;;1.30;1.20;;;7.00;99.90;;;;;;1936694;73;25213;-89
2023/10/08 16:15:40;;;;;;;2.93;1.30;;;6.90;99.90;;;;;;1926273;72;25322;-89
2023/10/08 16:18:29;;;;;;;2.47;1.30;;;6.70;99.90;;;;;;1929692;73;25270;-88
2023/10/08 16:21:20;;;;;;;1.70;1.37;;;6.50;99.90;;;;;;1929705;73;25274;-89
2023/10/08 16:26:52;;;;;;;6.50;1.87;;;6.20;99.90;;;;;;1928426;72;27099;-89
2023/10/08 16:29:41;;;;;;;2.33;1.70;;;6.00;99.90;;;;;;1862786;75;25244;-88
2023/10/08 16:32:30;;;;;;;3.63;2.30;;;5.80;99.90;;;;;;1848333;76;25227;-86
2023/10/08 16:35:20;;;;;;;3.90;2.30;;;5.60;99.90;;;;;;1856003;75;25627;-88
2023/10/08 16:38:09;;;;;;;2.60;2.00;;;5.50;99.90;;;;;;1916911;73;25177;-90
2023/10/08 16:46:10;;;;;;;4.70;1.83;;;5.30;99.90;;;;;;1976869;71;26704;-88
2023/10/08 16:48:58;;;;;;;3.37;1.60;;;5.10;99.90;;;;;;1963764;72;25637;-88
2023/10/08 16:51:47;;;;;;;1.70;1.60;;;5.00;99.90;;;;;;2046327;69;25226;-88
2023/10/08 16:54:35;;;;;;;5.07;1.80;;;4.70;99.90;;;;;;2042476;69;25712;-88
2023/10/08 16:57:25;;;;;;;2.80;1.90;;;4.60;99.90;;;;;;2049872;69;25641;-88
2023/10/08 17:00:15;;;;;;;2.27;1.80;;;4.50;99.90;;;;;;2041682;69;25131;-90
2023/10/08 17:03:05;;;;;;;3.13;1.50;;;4.30;99.90;;;;;;2041828;69;25141;-88
2023/10/08 17:05:55;;;;;;;3.20;1.70;;;4.10;99.90;;;;;;2043406;69;25622;-88
2023/10/08 17:08:43;;;;;;;5.57;1.53;;;4.00;99.90;;;;;;2050103;69;25190;-88
2023/10/08 17:11:35;;;;;;;3.43;1.83;;;3.90;99.90;;;;;;2040598;69;25778;-88
2023/10/08 17:14:22;;;;;;;3.33;1.67;;;3.70;99.90;;;;;;2053141;69;25320;-88
2023/10/08 17:17:12;;;;;;;2.63;1.77;;;3.70;99.90;;;;;;2038779;69;25665;-90
2023/10/08 17:20:03;;;;;;;3.47;1.90;;;3.60;99.90;;;;;;2032705;69;25700;-90
2023/10/08 17:22:52;;;;;;;4.93;1.80;;;3.40;99.90;;;;;;2033431;69;25186;-90
2023/10/08 17:25:43;;;;;;;5.93;2.23;;;3.40;99.90;;;;;;2031058;69;25272;-88
2023/10/08 17:28:31;;;;;;;4.33;1.90;;;3.30;99.90;;;;;;2040227;69;25198;-90
2023/10/08 17:31:19;;;;;;;5.83;2.53;;;3.20;99.90;;;;;;2039026;69;25279;-89
2023/10/08 17:34:09;;;;;;;3.20;2.20;;;3.10;99.90;;;;;;2039854;69;25211;-89
2023/10/08 17:36:59;;;;;;;5.50;2.20;;;3.00;99.90;;;;;;2050241;69;25179;-88
2023/10/08 17:39:47;;;;;;;8.10;2.80;;;2.90;99.90;;;;;;2044648;69;25247;-89
2023/10/08 17:42:36;;;;;;;5.57;3.43;;;2.90;99.90;;;;;;2026904;69;25248;-89
2023/10/08 17:45:32;;;;;;;6.00;3.30;;;2.80;99.90;;;;;;2025228;69;25202;-89
2023/10/08 17:48:15;;;;;;;13.20;4.20;;;2.80;99.90;;;;;;2019828;69;25928;-89
2023/10/08 17:51:05;;;;;;;5.47;3.60;;;2.80;99.90;;;;;;2017510;70;25610;-89
2023/10/08 17:53:54;;;;;;;6.40;3.47;;;2.70;99.90;;;;;;2020345;70;25242;-89
2023/10/08 17:56:43;;;;;;;11.27;3.73;;;2.60;99.90;;;;;;2014639;70;25135;-89
2023/10/08 17:59:31;;;;;;;8.80;4.17;;;2.60;99.90;;;;;;2018403;69;25711;-88